Time,TemperatureF,DewpointF,PressureIn,WindDirection,WindDirectionDegrees,WindSpeedMPH,WindSpeedGustMPH,Humidity,HourlyPrecipIn,Conditions,Clouds,dailyrainin,SoftwareType,DateUTC
2013-09-24 00:12:00,55.0,49.0,29.85,NW,311,0.0,0.0,79,0.00,,,0.00,,2013-09-24 06:12:00,
2013-09-24 00:22:00,56.0,49.0,29.85,NW,311,0.0,0.0,77,0.00,,,0.00,,2013-09-24 06:22:00,
2013-09-24 00:42:00,57.0,49.0,29.85,NW,326,0.0,1.0,74,0.00,,,0.00,,2013-09-24 06:42:00,
2013-09-24 00:52:00,57.0,48.0,29.85,NNE,17,0.0,1.0,72,0.00,,,0.00,,2013-09-24 06:52:00,
2013-09-24 01:12:00,57.0,48.0,29.85,North,11,0.0,1.0,72,0.00,,,0.00,,2013-09-24 07:12:00,
2013-09-24 01:22:00,57.0,48.0,29.86,NNE,13,0.0,0.0,73,0.00,,,0.00,,2013-09-24 07:22:00,
2013-09-24 01:43:00,56.0,47.0,29.87,NE,40,0.0,2.0,73,0.00,,,0.00,,2013-09-24 07:43:00,
2013-09-24 01:52:00,57.0,47.0,29.87,NW,326,0.0,1.0,69,0.00,,,0.00,,2013-09-24 07:52:00,
2013-09-24 02:11:00,58.0,46.0,29.88,NE,42,0.0,1.0,64,0.00,,,0.00,,2013-09-24 08:11:00,
2013-09-24 02:22:00,57.0,45.0,29.88,NNE,31,0.0,0.0,65,0.00,,,0.00,,2013-09-24 08:22:00,
2013-09-24 02:42:00,56.0,45.0,29.89,NNE,12,0.0,1.0,67,0.00,,,0.00,,2013-09-24 08:42:00,
2013-09-24 02:52:00,57.0,46.0,29.88,North,5,0.0,1.0,67,0.00,,,0.00,,2013-09-24 08:52:00,
2013-09-24 03:12:00,58.0,47.0,29.89,NNE,25,0.0,3.0,66,0.00,,,0.00,,2013-09-24 09:12:00,
2013-09-24 03:21:00,57.0,46.0,29.89,NNE,26,0.0,1.0,67,0.00,,,0.00,,2013-09-24 09:21:00,
2013-09-24 03:43:00,58.0,46.0,29.89,NNE,18,0.0,4.0,64,0.00,,,0.00,,2013-09-24 09:43:00,
2013-09-24 03:53:00,58.0,46.0,29.89,NNW,342,0.0,3.0,64,0.00,,,0.00,,2013-09-24 09:53:00,
2013-09-24 04:13:00,58.0,44.0,29.89,North,11,1.0,5.0,60,0.00,,,0.00,,2013-09-24 10:13:00,
2013-09-24 04:23:00,59.0,43.0,29.90,North,9,2.0,6.0,56,0.00,,,0.00,,2013-09-24 10:23:00,
2013-09-24 04:42:00,60.0,43.0,29.90,NNE,17,1.0,7.0,53,0.00,,,0.00,,2013-09-24 10:42:00,
2013-09-24 04:53:00,60.0,42.0,29.90,North,359,1.0,7.0,52,0.00,,,0.00,,2013-09-24 10:53:00,
2013-09-24 05:11:00,59.0,42.0,29.91,NE,46,1.0,4.0,53,0.00,,,0.00,,2013-09-24 11:11:00,
2013-09-24 05:22:00,59.0,42.0,29.91,North,351,0.0,4.0,53,0.00,,,0.00,,2013-09-24 11:22:00,
2013-09-24 05:52:00,58.0,41.0,29.92,NNW,346,0.0,3.0,53,0.00,,,0.00,,2013-09-24 11:52:00,
2013-09-24 06:12:00,59.0,40.0,29.93,NE,42,2.0,5.0,49,0.00,,,0.00,,2013-09-24 12:12:00,
2013-09-24 06:22:00,59.0,40.0,29.93,NNE,27,1.0,4.0,49,0.00,,,0.00,,2013-09-24 12:22:00,
2013-09-24 06:42:00,59.0,39.0,29.93,NE,39,1.0,5.0,48,0.00,,,0.00,,2013-09-24 12:42:00,
2013-09-24 06:52:00,59.0,39.0,29.94,NNE,27,0.0,4.0,48,0.00,,,0.00,,2013-09-24 12:52:00,
2013-09-24 07:11:00,60.0,39.0,29.94,NNW,347,2.0,7.0,46,0.00,,,0.00,,2013-09-24 13:11:00,
2013-09-24 07:22:00,61.0,39.0,29.95,NNE,13,3.0,7.0,44,0.00,,,0.00,,2013-09-24 13:22:00,
2013-09-24 07:42:00,61.0,40.0,29.95,NNE,32,2.0,10.0,45,0.00,,,0.00,,2013-09-24 13:42:00,
2013-09-24 07:52:00,61.0,40.0,29.96,NNE,26,3.0,12.0,45,0.00,,,0.00,,2013-09-24 13:52:00,
2013-09-24 08:12:00,61.0,40.0,29.96,NNW,341,2.0,5.0,46,0.00,,,0.00,,2013-09-24 14:12:00,
2013-09-24 08:21:00,60.0,40.0,29.96,ESE,103,2.0,7.0,48,0.00,,,0.00,,2013-09-24 14:21:00,
2013-09-24 08:42:00,61.0,41.0,29.97,NNE,33,1.0,7.0,47,0.00,,,0.00,,2013-09-24 14:42:00,
2013-09-24 08:52:00,61.0,41.0,29.97,NNW,340,1.0,8.0,47,0.00,,,0.00,,2013-09-24 14:52:00,
2013-09-24 09:11:00,62.0,42.0,29.97,NNW,346,1.0,6.0,48,0.00,,,0.00,,2013-09-24 15:11:00,
2013-09-24 09:22:00,63.0,42.0,29.97,NNE,16,2.0,8.0,46,0.00,,,0.00,,2013-09-24 15:22:00,
2013-09-24 09:43:00,64.0,43.0,29.98,North,354,1.0,9.0,46,0.00,,,0.00,,2013-09-24 15:43:00,
2013-09-24 09:53:00,65.0,43.0,29.98,North,351,2.0,8.0,44,0.00,,,0.00,,2013-09-24 15:53:00,
2013-09-24 10:13:00,67.0,44.0,29.98,NNE,32,3.0,8.0,43,0.00,,,0.00,,2013-09-24 16:13:00,
2013-09-24 10:23:00,68.0,45.0,29.98,NE,41,1.0,5.0,43,0.00,,,0.00,,2013-09-24 16:23:00,
2013-09-24 10:43:00,70.0,45.0,29.98,NE,40,3.0,8.0,41,0.00,,,0.00,,2013-09-24 16:43:00,
2013-09-24 10:53:00,72.0,46.0,29.98,NW,314,0.0,8.0,40,0.00,,,0.00,,2013-09-24 16:53:00,
2013-09-24 11:13:00,73.0,45.0,29.98,ENE,74,1.0,5.0,37,0.00,,,0.00,,2013-09-24 17:13:00,
2013-09-24 11:23:00,75.0,46.0,29.98,West,272,1.0,4.0,36,0.00,,,0.00,,2013-09-24 17:23:00,
2013-09-24 11:53:00,77.0,46.0,29.97,NE,54,1.0,6.0,33,0.00,,,0.00,,2013-09-24 17:53:00,
2013-09-24 12:12:00,77.0,45.0,29.97,NE,38,0.0,6.0,32,0.00,,,0.00,,2013-09-24 18:12:00,
2013-09-24 12:22:00,79.0,45.0,29.96,WNW,301,1.0,5.0,30,0.00,,,0.00,,2013-09-24 18:22:00,
2013-09-24 12:52:00,81.0,43.0,29.95,NNW,337,0.0,3.0,26,0.00,,,0.00,,2013-09-24 18:52:00,
2013-09-24 13:11:00,82.0,47.0,29.94,WSW,242,0.0,2.0,30,0.00,,,0.00,,2013-09-24 19:11:00,
2013-09-24 13:22:00,83.0,42.0,29.93,NW,323,0.0,2.0,24,0.00,,,0.00,,2013-09-24 19:22:00,
2013-09-24 13:42:00,84.0,40.0,29.92,NNE,19,0.0,4.0,21,0.00,,,0.00,,2013-09-24 19:42:00,
2013-09-24 13:52:00,84.0,43.0,29.91,WNW,300,0.0,3.0,24,0.00,,,0.00,,2013-09-24 19:52:00,
2013-09-24 14:11:00,84.0,37.0,29.91,SSE,151,0.0,2.0,19,0.00,,,0.00,,2013-09-24 20:11:00,
2013-09-24 14:22:00,84.0,42.0,29.89,NW,315,0.0,2.0,23,0.00,,,0.00,,2013-09-24 20:22:00,
2013-09-24 14:42:00,86.0,45.0,29.89,NW,318,0.0,2.0,24,0.00,,,0.00,,2013-09-24 20:42:00,
2013-09-24 14:52:00,86.0,39.0,29.88,SSE,147,2.0,4.0,19,0.00,,,0.00,,2013-09-24 20:52:00,
2013-09-24 15:12:00,85.0,46.0,29.87,WNW,290,0.0,4.0,26,0.00,,,0.00,,2013-09-24 21:12:00,
2013-09-24 15:22:00,85.0,45.0,29.87,West,262,0.0,3.0,25,0.00,,,0.00,,2013-09-24 21:22:00,
2013-09-24 15:43:00,86.0,41.0,29.86,SSW,194,1.0,4.0,21,0.00,,,0.00,,2013-09-24 21:43:00,
2013-09-24 16:13:00,84.0,43.0,29.85,East,101,0.0,1.0,24,0.00,,,0.00,,2013-09-24 22:13:00,
2013-09-24 16:23:00,83.0,39.0,29.84,South,169,0.0,2.0,21,0.00,,,0.00,,2013-09-24 22:23:00,
2013-09-24 16:53:00,83.0,45.0,29.83,SW,217,0.0,2.0,26,0.00,,,0.00,,2013-09-24 22:53:00,
2013-09-24 17:13:00,82.0,43.0,29.83,West,266,0.0,2.0,25,0.00,,,0.00,,2013-09-24 23:13:00,
2013-09-24 17:22:00,80.0,43.0,29.83,North,1,0.0,1.0,27,0.00,,,0.00,,2013-09-24 23:22:00,
2013-09-24 21:54:00,60.0,49.0,29.84,SW,218,0.0,0.0,68,0.00,,,0.00,,2013-09-25 03:54:00,
2013-09-24 22:24:00,59.0,49.0,29.84,SW,218,0.0,0.0,69,0.00,,,0.00,,2013-09-25 04:24:00,
2013-09-24 22:43:00,58.0,49.0,29.84,SW,217,0.0,0.0,71,0.00,,,0.00,,2013-09-25 04:43:00,
2013-09-24 22:54:00,58.0,49.0,29.83,SW,218,0.0,0.0,72,0.00,,,0.00,,2013-09-25 04:54:00,
2013-09-24 23:12:00,57.0,50.0,29.83,SW,218,0.0,0.0,76,0.00,,,0.00,,2013-09-25 05:12:00,
2013-09-24 23:23:00,57.0,50.0,29.83,SW,218,0.0,0.0,77,0.00,,,0.00,,2013-09-25 05:23:00,
2013-09-24 23:53:00,56.0,49.0,29.83,SW,218,0.0,0.0,77,0.00,,,0.00,,2013-09-25 05:53:00,